Overseas Mindoro — V7RE6 — position and weather

sailwx.info

Track history (hours):
 
Tides and Currents Weather Stations Pressure Air Temp Water Temp Dewpoint Dewpoint Depression Visibility Wind Speed Wind Dir Waves Ship Positions

Overseas Mindoro

Last reported at 2014-Jul-24 10:34 UTC. Time now 2014-Jul-24 14:37 UTC.
Position N 32°14' W 119°23'.

Length 238 m; draft 8.2 m.

Type: Tanker. MMSI: 538003473.

Date/timePositionNaut miles runAvg speedWind from/ knotsBaromVisibWave heightAir tempDewpointWater temp
2014-Jul-24 10:34N 32°14' W 119°23'1514.8
2014-Jul-24 09:34N 32°15' W 119°06'1514.6
2014-Jul-24 08:34N 32°16' W 118°48'1515.0
2014-Jul-24 07:33N 32°17' W 118°30'1515.0
2014-Jul-24 06:34N 32°17' W 118°13'1514.9
2014-Jul-24 05:34N 32°18' W 117°55'1514.6
2014-Jul-24 04:34N 32°19' W 117°38'1514.7
2014-Jul-24 03:34N 32°18' W 117°21'7 7.3
2014-Jul-24 02:33N 32°18' W 117°12'0 0.1
2014-Jul-24 01:33N 32°18' W 117°12'0 0.3
2014-Jul-24 00:33N 32°18' W 117°12'9 8.6
2014-Jul-23 23:33N 32°24' W 117°21'1515.0
2014-Jul-23 22:34N 32°32' W 117°36'1413.6
2014-Jul-23 21:34N 32°40' W 117°48'1312.8
2014-Jul-23 20:34N 32°53' W 117°51'1212.3
2014-Jul-23 19:34N 33°05' W 117°56'1313.4
2014-Jul-23 18:34N 33°16' W 118°04'1413.7
2014-Jul-23 17:33N 33°29' W 118°10'1211.6
2014-Jul-23 16:33N 33°40' W 118°14'6 4.8
2014-Jul-23 15:19N 33°45' W 118°16'0 0.0
2014-Jul-23 13:31N 33°45' W 118°16'0 0.0
2014-Jul-23 09:13N 33°45' W 118°16'0 0.0
2014-Jul-23 07:07N 33°45' W 118°16'0 0.0
2014-Jul-23 06:31N 33°45' W 118°16'0 0.0
2014-Jul-23 04:10N 33°45' W 118°16'0 0.0
2014-Jul-23 03:31N 33°45' W 118°16'0 0.0
2014-Jul-23 02:28N 33°45' W 118°16'0 0.0
2014-Jul-23 00:25N 33°45' W 118°16'0 0.0
2014-Jul-22 21:25N 33°45' W 118°16'0 0.0
2014-Jul-22 20:19N 33°45' W 118°16'  
2014-Jul-20 14:06N 33°43' W 118°14'0 0.0
2014-Jul-20 13:27N 33°43' W 118°14'0 0.0
2014-Jul-20 12:12N 33°43' W 118°14'0 0.1
2014-Jul-20 11:03N 33°43' W 118°13'0 0.1
2014-Jul-20 10:33N 33°43' W 118°14'0 0.0
2014-Jul-20 07:24N 33°43' W 118°14'0 0.0
2014-Jul-20 04:21N 33°43' W 118°14'0 0.0
2014-Jul-20 02:03N 33°43' W 118°14'0 0.0
2014-Jul-20 01:06N 33°43' W 118°14'0 0.1
2014-Jul-20 00:27N 33°43' W 118°13'0 0.0
2014-Jul-19 23:09N 33°43' W 118°14'0 0.0
2014-Jul-19 22:30N 33°43' W 118°14'0 0.0
2014-Jul-19 18:24N 33°43' W 118°14'0 0.1
2014-Jul-19 17:33N 33°43' W 118°14'0 0.0
2014-Jul-19 16:33N 33°43' W 118°14'0 0.1
2014-Jul-19 15:33N 33°43' W 118°14'0 0.0
2014-Jul-19 14:33N 33°43' W 118°14'0 0.0
2014-Jul-19 13:27N 33°43' W 118°14'0 0.0
2014-Jul-19 12:24N 33°43' W 118°14'0 0.0
2014-Jul-19 11:33N 33°43' W 118°14'0 0.0
2014-Jul-19 10:33N 33°43' W 118°14'0 0.0
2014-Jul-19 09:33N 33°43' W 118°14'0 0.0
2014-Jul-19 08:33N 33°43' W 118°14'0 0.1
2014-Jul-19 07:33N 33°43' W 118°13'0 0.0
2014-Jul-19 06:33N 33°43' W 118°13'0 0.0
2014-Jul-19 05:30N 33°43' W 118°13'0 0.0
2014-Jul-19 04:09N 33°43' W 118°13'0 0.0
2014-Jul-19 03:24N 33°43' W 118°13'0 0.0
2014-Jul-19 02:33N 33°43' W 118°13'0 0.0
2014-Jul-19 00:33N 33°43' W 118°13'0 0.0
2014-Jul-18 23:29N 33°43' W 118°14'13 6.6
2014-Jul-18 21:33N 33°31' W 118°08'9 9.4
2014-Jul-18 20:33N 33°23' W 118°04'1110.9
2014-Jul-18 19:34N 33°12' W 118°00'1212.2
2014-Jul-18 18:34N 33°01' W 117°54'1312.8
2014-Jul-18 17:33N 32°49' W 117°50'1212.3
2014-Jul-18 16:33N 32°37' W 117°47'8 7.6
2014-Jul-18 15:33N 32°30' W 117°50'8 8.1
2014-Jul-18 14:32N 32°22' W 117°53'1513.9
2014-Jul-18 13:29N 32°08' W 117°59'1313.8
2014-Jul-18 12:33N 31°56' W 118°05'1413.7
2014-Jul-18 11:33N 31°43' W 118°09'1413.9
2014-Jul-18 10:33N 31°30' W 118°13'1 1.3
2014-Jul-18 09:33N 31°28' W 118°13'3 2.5
2014-Jul-18 08:27N 31°31' W 118°13'4 3.1
2014-Jul-18 07:19N 31°34' W 118°16'3 3.3
2014-Jul-18 06:30N 31°36' W 118°18'3 3.1
2014-Jul-18 05:33N 31°38' W 118°20'3 3.0
2014-Jul-18 04:32N 31°41' W 118°22'5 2.0
2014-Jul-18 02:17N 31°44' W 118°26'1 1.5
2014-Jul-18 01:33N 31°45' W 118°27'3 1.3
2014-Jul-17 23:31N 31°46' W 118°30'4 1.3
2014-Jul-17 20:07N 31°49' W 118°34'1 1.4
2014-Jul-17 19:04N 31°50' W 118°35'2 1.2
2014-Jul-17 17:33N 31°50' W 118°37'1 1.2
2014-Jul-17 16:33N 31°51' W 118°39'3 1.1
2014-Jul-17 13:33N 31°51' W 118°42'6 5.5
2014-Jul-17 12:22N 31°55' W 118°48'3 4.0
2014-Jul-17 11:31N 31°59' W 118°49'3 2.7
2014-Jul-17 10:33N 32°01' W 118°49'31 9.4
2014-Jul-17 07:16N 32°16' W 118°18'2011.6
2014-Jul-17 05:31N 32°24' W 117°56'1111.6
2014-Jul-17 04:33N 32°33' W 117°48'1211.6
2014-Jul-17 03:33N 32°45' W 117°49'9 9.3
2014-Jul-17 02:33N 32°54' W 117°52'10 9.9
2014-Jul-17 01:33N 33°04' W 117°55'1313.1
2014-Jul-17 00:33N 33°15' W 118°03'1210.7
2014-Jul-16 23:24N 33°26' W 118°09'810.0
2014-Jul-16 22:33N 33°34' W 118°13'10 9.2
2014-Jul-16 21:31N 33°43' W 118°16'2 0.3
2014-Jul-16 13:14N 33°45' W 118°16'  
Track history (hours):
 
Tides and Currents Weather Stations Pressure Air Temp Water Temp Dewpoint Dewpoint Depression Visibility Wind Speed Wind Dir Waves Ship Positions

Overseas Mindoro

Last reported at 2014-Jul-24 10:34 UTC. Time now 2014-Jul-24 14:37 UTC.
Position N 32°14' W 119°23'.

Length 238 m; draft 8.2 m.

Type: Tanker. MMSI: 538003473.

Date/timePositionNaut miles runAvg speedWind from/ knotsBaromVisibWave heightAir tempDewpointWater temp
2014-Jul-24 10:34N 32°14' W 119°23'1514.8
2014-Jul-24 09:34N 32°15' W 119°06'1514.6
2014-Jul-24 08:34N 32°16' W 118°48'1515.0
2014-Jul-24 07:33N 32°17' W 118°30'1515.0
2014-Jul-24 06:34N 32°17' W 118°13'1514.9
2014-Jul-24 05:34N 32°18' W 117°55'1514.6
2014-Jul-24 04:34N 32°19' W 117°38'1514.7
2014-Jul-24 03:34N 32°18' W 117°21'7 7.3
2014-Jul-24 02:33N 32°18' W 117°12'0 0.1
2014-Jul-24 01:33N 32°18' W 117°12'0 0.3
2014-Jul-24 00:33N 32°18' W 117°12'9 8.6
2014-Jul-23 23:33N 32°24' W 117°21'1515.0
2014-Jul-23 22:34N 32°32' W 117°36'1413.6
2014-Jul-23 21:34N 32°40' W 117°48'1312.8
2014-Jul-23 20:34N 32°53' W 117°51'1212.3
2014-Jul-23 19:34N 33°05' W 117°56'1313.4
2014-Jul-23 18:34N 33°16' W 118°04'1413.7
2014-Jul-23 17:33N 33°29' W 118°10'1211.6
2014-Jul-23 16:33N 33°40' W 118°14'6 4.8
2014-Jul-23 15:19N 33°45' W 118°16'0 0.0
2014-Jul-23 13:31N 33°45' W 118°16'0 0.0
2014-Jul-23 09:13N 33°45' W 118°16'0 0.0
2014-Jul-23 07:07N 33°45' W 118°16'0 0.0
2014-Jul-23 06:31N 33°45' W 118°16'0 0.0
2014-Jul-23 04:10N 33°45' W 118°16'0 0.0
2014-Jul-23 03:31N 33°45' W 118°16'0 0.0
2014-Jul-23 02:28N 33°45' W 118°16'0 0.0
2014-Jul-23 00:25N 33°45' W 118°16'0 0.0
2014-Jul-22 21:25N 33°45' W 118°16'0 0.0
2014-Jul-22 20:19N 33°45' W 118°16'  
2014-Jul-20 14:06N 33°43' W 118°14'0 0.0
2014-Jul-20 13:27N 33°43' W 118°14'0 0.0
2014-Jul-20 12:12N 33°43' W 118°14'0 0.1
2014-Jul-20 11:03N 33°43' W 118°13'0 0.1
2014-Jul-20 10:33N 33°43' W 118°14'0 0.0
2014-Jul-20 07:24N 33°43' W 118°14'0 0.0
2014-Jul-20 04:21N 33°43' W 118°14'0 0.0
2014-Jul-20 02:03N 33°43' W 118°14'0 0.0
2014-Jul-20 01:06N 33°43' W 118°14'0 0.1
2014-Jul-20 00:27N 33°43' W 118°13'0 0.0
2014-Jul-19 23:09N 33°43' W 118°14'0 0.0
2014-Jul-19 22:30N 33°43' W 118°14'0 0.0
2014-Jul-19 18:24N 33°43' W 118°14'0 0.1
2014-Jul-19 17:33N 33°43' W 118°14'0 0.0
2014-Jul-19 16:33N 33°43' W 118°14'0 0.1
2014-Jul-19 15:33N 33°43' W 118°14'0 0.0
2014-Jul-19 14:33N 33°43' W 118°14'0 0.0
2014-Jul-19 13:27N 33°43' W 118°14'0 0.0
2014-Jul-19 12:24N 33°43' W 118°14'0 0.0
2014-Jul-19 11:33N 33°43' W 118°14'0 0.0
2014-Jul-19 10:33N 33°43' W 118°14'0 0.0
2014-Jul-19 09:33N 33°43' W 118°14'0 0.0
2014-Jul-19 08:33N 33°43' W 118°14'0 0.1
2014-Jul-19 07:33N 33°43' W 118°13'0 0.0
2014-Jul-19 06:33N 33°43' W 118°13'0 0.0
2014-Jul-19 05:30N 33°43' W 118°13'0 0.0
2014-Jul-19 04:09N 33°43' W 118°13'0 0.0
2014-Jul-19 03:24N 33°43' W 118°13'0 0.0
2014-Jul-19 02:33N 33°43' W 118°13'0 0.0
2014-Jul-19 00:33N 33°43' W 118°13'0 0.0
2014-Jul-18 23:29N 33°43' W 118°14'13 6.6
2014-Jul-18 21:33N 33°31' W 118°08'9 9.4
2014-Jul-18 20:33N 33°23' W 118°04'1110.9
2014-Jul-18 19:34N 33°12' W 118°00'1212.2
2014-Jul-18 18:34N 33°01' W 117°54'1312.8
2014-Jul-18 17:33N 32°49' W 117°50'1212.3
2014-Jul-18 16:33N 32°37' W 117°47'8 7.6
2014-Jul-18 15:33N 32°30' W 117°50'8 8.1
2014-Jul-18 14:32N 32°22' W 117°53'1513.9
2014-Jul-18 13:29N 32°08' W 117°59'1313.8
2014-Jul-18 12:33N 31°56' W 118°05'1413.7
2014-Jul-18 11:33N 31°43' W 118°09'1413.9
2014-Jul-18 10:33N 31°30' W 118°13'1 1.3
2014-Jul-18 09:33N 31°28' W 118°13'3 2.5
2014-Jul-18 08:27N 31°31' W 118°13'4 3.1
2014-Jul-18 07:19N 31°34' W 118°16'3 3.3
2014-Jul-18 06:30N 31°36' W 118°18'3 3.1
2014-Jul-18 05:33N 31°38' W 118°20'3 3.0
2014-Jul-18 04:32N 31°41' W 118°22'5 2.0
2014-Jul-18 02:17N 31°44' W 118°26'1 1.5
2014-Jul-18 01:33N 31°45' W 118°27'3 1.3
2014-Jul-17 23:31N 31°46' W 118°30'4 1.3
2014-Jul-17 20:07N 31°49' W 118°34'1 1.4
2014-Jul-17 19:04N 31°50' W 118°35'2 1.2
2014-Jul-17 17:33N 31°50' W 118°37'1 1.2
2014-Jul-17 16:33N 31°51' W 118°39'3 1.1
2014-Jul-17 13:33N 31°51' W 118°42'6 5.5
2014-Jul-17 12:22N 31°55' W 118°48'3 4.0
2014-Jul-17 11:31N 31°59' W 118°49'3 2.7
2014-Jul-17 10:33N 32°01' W 118°49'31 9.4
2014-Jul-17 07:16N 32°16' W 118°18'2011.6
2014-Jul-17 05:31N 32°24' W 117°56'1111.6
2014-Jul-17 04:33N 32°33' W 117°48'1211.6
2014-Jul-17 03:33N 32°45' W 117°49'9 9.3
2014-Jul-17 02:33N 32°54' W 117°52'10 9.9
2014-Jul-17 01:33N 33°04' W 117°55'1313.1
2014-Jul-17 00:33N 33°15' W 118°03'1210.7
2014-Jul-16 23:24N 33°26' W 118°09'810.0
2014-Jul-16 22:33N 33°34' W 118°13'10 9.2
2014-Jul-16 21:31N 33°43' W 118°16'2 0.3
2014-Jul-16 13:14N 33°45' W 118°16'  

Dump ship's entire track history